S. Maria Di Leuca, Italy
Alba: 6:02 AM UTC1
Tramonto: 4:58 PM UTC1
 Lat: 39.82N, Lon: 18.35E
ICAO Used: LIBY
Condizioni Meteo Attuali Aggiornate: 22.10.2018 alle 14:55 UTC
Debole Temporale Pioggia
Debole Temporale Pioggia
Molto Nuvoloso
Debole Temporale Pioggia
Temp: 16°C
Umidita': 77%
Direz/Vel. Vento: E 13 / KT raffiche
Pressione: 1011 hPa
Punto di rugiada: 12°C
Temperatura percepita: 16°C
Visibilitą: 3000 m. (discreta)
Temperatura percepita in
presenza di vento (Wind Chill)
:
14°C
T. max (ultime 24 ore): 19°C
T. min (ultime 24 ore): 15°C


METAR ORIGINALE
LIBY 221455Z 09013KT 3000 -TSRA FEW005CB BKN020 16/12 Q1011 RMK OVC QUK 2 QUL 1 E VIS MAR 3 KM VIS MIN 3000



[ Indietro ]


Elaborazione dati by Datameteo.com - Lrc srl Copyright ©, All rights reserved.